Time;durP1;ratioP1;P1;durP2;ratioP2;P2;SDS_P1;SDS_P2;PMS_P1;PMS_P2;Temp;Humidity;BMP_temperature;BMP_pressure;BME280_temperature;BME280_humidity;BME280_pressure;Samples;Min_cycle;Max_cycle;Signal;HPM_P1;HPM_P2
2023/09/11 00:00:09;;;;;;;7.78;4.42;;;;;;;13.60;65.97;100863.59;1618752;88;21059;-64
2023/09/11 00:02:38;;;;;;;8.23;4.40;;;;;;;13.59;66.01;100861.90;1618566;89;21074;-65
2023/09/11 00:05:08;;;;;;;8.00;4.53;;;;;;;13.57;66.04;100867.29;1618783;88;21055;-65
2023/09/11 00:07:37;;;;;;;8.08;4.55;;;;;;;13.57;66.10;100862.63;1618575;88;21147;-64
2023/09/11 00:10:08;;;;;;;9.98;4.92;;;;;;;13.58;66.21;100866.23;1618887;88;21007;-65
2023/09/11 00:12:37;;;;;;;8.58;5.00;;;;;;;13.57;66.15;100865.39;1618581;88;21007;-64
2023/09/11 00:15:08;;;;;;;8.30;4.80;;;;;;;13.59;66.08;100866.03;1618561;88;21130;-65
2023/09/11 00:17:36;;;;;;;8.03;4.42;;;;;;;13.57;66.01;100863.16;1618787;87;21079;-65
2023/09/11 00:20:10;;;;;;;9.53;4.45;;;;;;;13.57;66.04;100865.91;1618524;87;21039;-65
2023/09/11 00:22:38;;;;;;;7.83;4.12;;;;;;;13.57;66.03;100864.01;1642716;87;21047;-64
2023/09/11 00:25:09;;;;;;;7.17;3.92;;;;;;;13.56;66.00;100862.84;1618595;88;21569;-65
2023/09/11 00:27:38;;;;;;;7.03;4.10;;;;;;;13.55;66.04;100859.23;1618663;87;21043;-65
2023/09/11 00:30:09;;;;;;;7.45;3.92;;;;;;;13.56;66.01;100861.46;1599662;89;21096;-64
2023/09/11 00:32:38;;;;;;;7.58;3.80;;;;;;;13.54;66.02;100863.05;1618597;88;21055;-64
2023/09/11 00:35:08;;;;;;;6.67;4.10;;;;;;;13.51;65.98;100861.23;1618598;88;21126;-65
2023/09/11 00:37:37;;;;;;;7.65;3.98;;;;;;;13.49;65.97;100860.06;1618848;88;21478;-64
2023/09/11 00:40:08;;;;;;;7.62;3.85;;;;;;;13.49;66.00;100861.96;1618533;88;21027;-66
2023/09/11 00:42:38;;;;;;;10.48;3.67;;;;;;;13.48;66.02;100858.89;1618864;89;21067;-65
2023/09/11 00:45:08;;;;;;;8.48;4.00;;;;;;;13.46;66.01;100852.21;1618592;88;21067;-65
2023/09/11 00:47:36;;;;;;;8.88;3.90;;;;;;;13.45;66.03;100853.27;1618753;89;21143;-65
2023/09/11 00:50:07;;;;;;;10.03;3.40;;;;;;;13.45;66.05;100853.27;1643266;87;21055;-64
2023/09/11 00:52:36;;;;;;;9.58;3.40;;;;;;;13.44;66.02;100847.44;1602470;86;21197;-65
2023/09/11 00:55:06;;;;;;;5.30;2.95;;;;;;;13.40;65.92;100853.03;1618820;88;21490;-65
2023/09/11 00:57:35;;;;;;;6.25;2.95;;;;;;;13.41;65.90;100845.09;1620602;87;21083;-66
2023/09/11 01:00:06;;;;;;;5.60;3.02;;;;;;;13.43;65.87;100853.15;1618757;89;21106;-65
2023/09/11 01:02:36;;;;;;;6.42;3.55;;;;;;;13.42;65.94;100849.55;1618832;88;21071;-65
2023/09/11 01:05:08;;;;;;;5.00;3.02;;;;;;;13.42;66.06;100842.66;1618598;89;21075;-65
2023/09/11 01:07:36;;;;;;;5.65;3.30;;;;;;;13.43;66.06;100838.86;1618588;88;21106;-65
2023/09/11 01:10:06;;;;;;;7.45;3.17;;;;;;;13.42;66.04;100831.66;1618602;89;21473;-64
2023/09/11 01:12:36;;;;;;;6.00;3.30;;;;;;;13.41;66.00;100835.47;1618620;88;21491;-65
2023/09/11 01:15:06;;;;;;;5.50;3.15;;;;;;;13.41;65.98;100828.58;1618631;89;21091;-64
2023/09/11 01:17:46;;;;;;;5.37;3.05;;;;;;;13.42;65.95;100825.30;1618828;88;21083;-66
2023/09/11 01:21:06;;;;;;;4.35;2.90;;;;;;;13.41;65.96;100826.36;1620226;87;21517;-65
2023/09/11 01:24:11;;;;;;;5.20;3.00;;;;;;;13.38;65.98;100822.11;1618528;88;21071;-64
2023/09/11 01:26:57;;;;;;;4.12;3.02;;;;;;;13.35;66.12;100821.67;1618580;89;21059;-65
2023/09/11 01:29:27;;;;;;;5.62;2.95;;;;;;;13.33;66.19;100820.50;1618634;89;21503;-64
2023/09/11 01:31:57;;;;;;;5.42;2.90;;;;;;;13.27;66.27;100811.70;1618765;88;21071;-65
2023/09/11 01:34:26;;;;;;;5.20;3.02;;;;;;;13.26;66.41;100813.59;1618640;88;21126;-64
2023/09/11 01:36:55;;;;;;;6.17;2.90;;;;;;;13.26;66.43;100816.34;1618605;88;21067;-65
2023/09/11 01:39:24;;;;;;;6.22;2.95;;;;;;;13.24;66.46;100815.70;1618710;89;21054;-64
2023/09/11 01:41:56;;;;;;;4.90;2.65;;;;;;;13.24;66.46;100812.95;1618538;88;21070;-65
2023/09/11 01:44:29;;;;;;;4.83;2.90;;;;;;;13.23;66.49;100818.13;1618845;89;21094;-64
2023/09/11 01:46:58;;;;;;;5.40;3.08;;;;;;;13.25;66.48;100816.55;1618711;89;21075;-65
2023/09/11 01:49:26;;;;;;;5.28;3.10;;;;;;;13.26;66.55;100812.75;1618615;88;21479;-65
2023/09/11 01:51:55;;;;;;;4.60;3.00;;;;;;;13.27;66.54;100815.30;1618524;89;21102;-63
2023/09/11 01:54:24;;;;;;;5.78;3.10;;;;;;;13.27;66.47;100811.70;1643824;86;21123;-64
2023/09/11 01:56:55;;;;;;;6.30;2.77;;;;;;;13.25;66.53;100813.27;1651619;87;21079;-63
2023/09/11 01:59:24;;;;;;;4.60;2.65;;;;;;;13.22;66.64;100810.08;1653038;87;21062;-65
2023/09/11 02:01:54;;;;;;;5.40;3.27;;;;;;;13.19;66.75;100801.72;1656902;86;21079;-67
2023/09/11 02:04:23;;;;;;;5.95;3.27;;;;;;;13.15;66.91;100805.89;1653028;87;21134;-65
2023/09/11 02:06:53;;;;;;;6.20;3.40;;;;;;;13.13;67.04;100807.16;1656841;86;21067;-65
2023/09/11 02:09:22;;;;;;;7.10;3.40;;;;;;;13.14;67.07;100811.60;1653089;87;21106;-65
2023/09/11 02:11:51;;;;;;;11.60;3.90;;;;;;;13.14;67.11;100806.09;1653011;87;21094;-65
2023/09/11 02:14:20;;;;;;;6.87;3.33;;;;;;;13.17;67.11;100801.06;1652852;87;21066;-64
2023/09/11 02:16:49;;;;;;;5.50;3.10;;;;;;;13.17;67.06;100800.22;1653008;87;21067;-64
2023/09/11 02:19:18;;;;;;;7.70;3.08;;;;;;;13.15;67.14;100805.05;1653088;86;21367;-65
2023/09/11 02:21:47;;;;;;;7.00;3.20;;;;;;;13.16;67.17;100797.11;1653013;87;21059;-63
2023/09/11 02:24:16;;;;;;;7.53;3.25;;;;;;;13.14;67.13;100800.59;1652866;87;21523;-64
2023/09/11 02:26:46;;;;;;;6.37;3.27;;;;;;;13.11;67.24;100801.86;1653151;87;21097;-63
2023/09/11 02:29:15;;;;;;;9.00;3.50;;;;;;;13.10;67.37;100796.56;1652824;87;21102;-63
2023/09/11 02:31:44;;;;;;;5.65;3.10;;;;;;;13.10;67.49;100797.94;1653065;85;21511;-64
2023/09/11 02:34:13;;;;;;;6.83;3.27;;;;;;;13.06;67.60;100796.64;1652819;87;21075;-63
2023/09/11 02:36:42;;;;;;;5.95;3.20;;;;;;;13.03;67.70;100800.66;1653022;87;21118;-64
2023/09/11 02:39:10;;;;;;;6.33;3.30;;;;;;;13.00;67.84;100798.28;1652872;87;21110;-65
2023/09/11 02:41:39;;;;;;;5.25;3.08;;;;;;;13.01;67.91;100798.11;1652900;87;21038;-65
2023/09/11 02:44:08;;;;;;;6.55;3.22;;;;;;;13.04;67.89;100796.84;1653055;87;21054;-64
2023/09/11 02:46:37;;;;;;;6.50;3.40;;;;;;;13.01;67.98;100800.86;1653052;86;21055;-63
2023/09/11 02:49:06;;;;;;;5.67;3.15;;;;;;;12.96;68.04;100790.95;1652878;87;21082;-66
2023/09/11 02:51:35;;;;;;;4.92;2.95;;;;;;;12.95;68.13;100800.79;1652831;87;21043;-64
2023/09/11 02:54:04;;;;;;;5.80;3.33;;;;;;;12.95;68.16;100805.77;1655586;86;21071;-65
2023/09/11 02:56:37;;;;;;;4.83;3.12;;;;;;;12.94;68.25;100806.81;1659227;86;21125;-64
2023/09/11 02:59:05;;;;;;;8.43;3.37;;;;;;;12.90;68.37;100804.16;1659348;85;21574;-65
2023/09/11 03:01:34;;;;;;;8.28;4.25;;;;;;;12.87;68.64;100806.45;1659295;86;21138;-65
2023/09/11 03:04:03;;;;;;;9.95;3.80;;;;;;;12.79;68.86;100800.59;1659189;86;21498;-65
2023/09/11 03:06:32;;;;;;;8.78;3.70;;;;;;;12.75;69.12;100800.67;1661604;86;21066;-64
2023/09/11 03:09:03;;;;;;;7.15;3.33;;;;;;;12.72;69.27;100801.08;1659216;85;21022;-64
2023/09/11 03:11:33;;;;;;;9.68;3.80;;;;;;;12.70;69.37;100805.94;1661750;86;21082;-67
2023/09/11 03:14:04;;;;;;;6.35;3.35;;;;;;;12.70;69.47;100805.94;1659389;86;21030;-65
2023/09/11 03:16:33;;;;;;;5.37;3.10;;;;;;;12.69;69.50;100801.48;1659471;86;21134;-64
2023/09/11 03:19:03;;;;;;;13.62;4.80;;;;;;;12.68;69.62;100803.91;1659216;86;21070;-64
2023/09/11 03:21:32;;;;;;;6.85;3.60;;;;;;;12.63;69.80;100796.80;1659375;86;21097;-65
2023/09/11 03:24:03;;;;;;;7.12;3.65;;;;;;;12.60;69.99;100808.19;1659250;86;21102;-64
2023/09/11 03:26:32;;;;;;;6.28;3.85;;;;;;;12.62;70.08;100806.09;1659528;85;21090;-64
2023/09/11 03:29:01;;;;;;;8.48;3.80;;;;;;;12.63;70.10;100806.42;1659225;86;21062;-65
2023/09/11 03:31:30;;;;;;;7.30;3.25;;;;;;;12.64;70.09;100799.87;1659411;86;21074;-65
2023/09/11 03:33:58;;;;;;;7.87;3.45;;;;;;;12.63;70.08;100802.30;1661555;86;21526;-63
2023/09/11 03:36:28;;;;;;;5.85;3.30;;;;;;;12.61;70.17;100811.27;1659371;86;21118;-65
2023/09/11 03:38:56;;;;;;;6.40;3.47;;;;;;;12.59;70.27;100802.38;1659312;86;21091;-65
2023/09/11 03:41:25;;;;;;;7.12;3.47;;;;;;;12.57;70.38;100800.35;1659331;86;21067;-65
2023/09/11 03:43:55;;;;;;;5.67;3.70;;;;;;;12.56;70.52;100803.63;1659511;86;22015;-65
2023/09/11 03:46:23;;;;;;;10.70;4.42;;;;;;;12.58;70.58;100807.02;1659355;86;21070;-64
2023/09/11 03:48:52;;;;;;;7.20;3.90;;;;;;;12.61;70.60;100804.39;1659517;86;21062;-63
2023/09/11 03:51:22;;;;;;;7.37;3.83;;;;;;;12.62;70.62;100800.59;1659407;86;21190;-64
2023/09/11 03:53:51;;;;;;;9.28;4.40;;;;;;;12.64;70.62;100798.49;1660677;86;21093;-71
2023/09/11 03:56:22;;;;;;;7.00;3.70;;;;;;;12.68;70.64;100799.27;1664356;86;21528;-66
2023/09/11 03:58:51;;;;;;;8.18;3.62;;;;;;;12.74;70.57;100794.00;1664286;86;21576;-65
2023/09/11 04:01:20;;;;;;;9.93;4.00;;;;;;;12.78;70.50;100798.90;1664381;86;21521;-64
2023/09/11 04:03:50;;;;;;;8.23;4.85;;;;;;;12.80;70.41;100795.42;1658918;86;21197;-64
2023/09/11 04:06:19;;;;;;;8.80;4.58;;;;;;;12.82;70.43;100793.31;1664512;86;21034;-64
2023/09/11 04:08:49;;;;;;;10.90;4.75;;;;;;;12.84;70.37;100800.84;1664337;86;21066;-63
2023/09/11 04:11:19;;;;;;;8.45;4.95;;;;;;;12.86;70.31;100804.23;1664357;85;21126;-64
2023/09/11 04:13:50;;;;;;;7.08;4.62;;;;;;;12.87;70.33;100805.08;1664329;86;21591;-64
2023/09/11 04:16:21;;;;;;;8.30;5.08;;;;;;;12.88;70.28;100793.88;1664368;86;21116;-65
2023/09/11 04:18:50;;;;;;;10.32;5.37;;;;;;;12.92;70.21;100800.67;1664396;86;21485;-65
2023/09/11 04:21:20;;;;;;;11.40;5.37;;;;;;;12.97;70.17;100804.19;1638712;86;21070;-66
2023/09/11 04:23:50;;;;;;;12.88;6.22;;;;;;;12.99;70.16;100794.68;1604848;89;21090;-67
2023/09/11 04:26:19;;;;;;;11.15;6.00;;;;;;;13.04;70.09;100798.75;1604907;89;21136;-64
2023/09/11 04:28:48;;;;;;;9.33;5.55;;;;;;;13.07;70.08;100795.59;1605128;88;21160;-65
2023/09/11 04:31:16;;;;;;;13.72;6.10;;;;;;;13.10;69.99;100794.66;1604940;89;21078;-65
2023/09/11 04:33:46;;;;;;;10.80;5.12;;;;;;;13.15;69.90;100796.79;1605180;89;21101;-65
2023/09/11 04:36:15;;;;;;;10.90;5.90;;;;;;;13.19;69.75;100798.11;1605070;89;21174;-64
2023/09/11 04:38:43;;;;;;;11.78;6.58;;;;;;;13.23;69.56;100787.02;1553467;91;21527;-65
2023/09/11 04:41:14;;;;;;;10.43;6.05;;;;;;;13.27;69.35;100785.55;1585385;88;21689;-64
2023/09/11 04:43:43;;;;;;;11.80;6.25;;;;;;;13.32;69.22;100785.25;1630663;88;21465;-65
2023/09/11 04:46:12;;;;;;;10.63;6.47;;;;;;;13.37;69.11;100786.53;1632233;88;21106;-64
2023/09/11 04:48:41;;;;;;;13.88;6.55;;;;;;;13.42;69.00;100787.61;1632253;88;21058;-65
2023/09/11 04:51:11;;;;;;;13.00;5.87;;;;;;;13.47;68.92;100791.97;1632316;88;21046;-65
2023/09/11 04:53:39;;;;;;;13.28;5.97;;;;;;;13.51;68.74;100778.11;1631830;88;21095;-65
2023/09/11 04:56:10;;;;;;;9.65;5.08;;;;;;;13.55;68.68;100776.64;1657250;86;21038;-64
2023/09/11 04:58:39;;;;;;;11.28;5.90;;;;;;;13.60;68.65;100780.99;1659550;86;21158;-64
2023/09/11 05:01:09;;;;;;;12.80;6.10;;;;;;;13.65;68.63;100777.61;1657432;86;21102;-66
2023/09/11 05:03:38;;;;;;;12.80;6.20;;;;;;;13.70;68.67;100777.02;1659548;86;21105;-65
2023/09/11 05:06:08;;;;;;;11.43;5.42;;;;;;;13.74;68.66;100772.26;1657266;86;21086;-65
2023/09/11 05:08:37;;;;;;;12.33;5.10;;;;;;;13.81;68.65;100776.40;1659536;86;21066;-66
2023/09/11 05:11:09;;;;;;;12.28;5.53;;;;;;;13.85;68.50;100771.64;1657135;86;21471;-65
2023/09/11 05:13:38;;;;;;;10.95;5.83;;;;;;;13.91;68.05;100778.22;1657407;86;21057;-65
2023/09/11 05:16:08;;;;;;;17.17;5.65;;;;;;;13.97;67.73;100782.88;1657246;86;21548;-65
2023/09/11 05:18:37;;;;;;;11.90;5.72;;;;;;;14.03;67.35;100777.06;1657256;86;21058;-65
2023/09/11 05:21:07;;;;;;;8.75;5.28;;;;;;;14.09;67.04;100770.70;1657309;86;21493;-64
2023/09/11 05:23:37;;;;;;;13.20;6.00;;;;;;;14.16;66.10;100771.02;1657354;86;21514;-65
2023/09/11 05:26:07;;;;;;;13.50;6.42;;;;;;;14.25;65.12;100780.77;1657394;86;21086;-65
2023/09/11 05:28:36;;;;;;;15.28;7.53;;;;;;;14.35;64.46;100774.01;1657308;86;21589;-67
2023/09/11 05:31:07;;;;;;;11.22;5.75;;;;;;;14.45;64.04;100775.83;1657274;86;21042;-64
2023/09/11 05:33:36;;;;;;;12.78;5.65;;;;;;;14.56;63.72;100772.42;1657255;86;21046;-64
2023/09/11 05:36:06;;;;;;;11.05;5.70;;;;;;;14.68;63.34;100774.84;1657019;86;21502;-66
2023/09/11 05:38:35;;;;;;;14.53;6.05;;;;;;;14.80;62.78;100772.27;1657177;86;21063;-65
2023/09/11 05:41:05;;;;;;;12.10;6.03;;;;;;;14.91;62.29;100781.25;1657411;86;21079;-65
2023/09/11 05:43:36;;;;;;;11.55;5.12;;;;;;;15.03;61.73;100780.08;1657429;85;21011;-65
2023/09/11 05:46:05;;;;;;;60.45;9.98;;;;;;;15.12;61.15;100776.00;1657183;86;21035;-64
2023/09/11 05:48:34;;;;;;;38.63;8.43;;;;;;;15.22;60.74;100781.91;1657098;86;21093;-66
2023/09/11 05:51:04;;;;;;;33.50;7.80;;;;;;;15.31;60.61;100781.12;1657161;86;21067;-64
2023/09/11 05:53:34;;;;;;;18.98;7.08;;;;;;;15.39;60.28;100772.59;1657080;86;21107;-64
2023/09/11 05:56:04;;;;;;;15.00;4.75;;;;;;;15.48;59.91;100769.89;1653287;86;21111;-65
2023/09/11 05:58:34;;;;;;;8.50;4.08;;;;;;;15.57;58.99;100764.41;1652962;87;21118;-66
2023/09/11 06:01:05;;;;;;;11.30;4.25;;;;;;;15.68;57.95;100769.30;1652923;87;21054;-65
2023/09/11 06:03:34;;;;;;;5.90;3.08;;;;;;;15.77;57.44;100768.50;1652855;87;21043;-64
2023/09/11 06:06:05;;;;;;;7.70;3.42;;;;;;;15.88;56.50;100767.78;1652856;87;21050;-65
2023/09/11 06:08:33;;;;;;;6.50;3.40;;;;;;;15.99;55.57;100765.67;1652938;85;21099;-64
2023/09/11 06:11:02;;;;;;;9.93;3.00;;;;;;;16.07;54.94;100769.55;1652781;87;21094;-65
2023/09/11 06:13:33;;;;;;;17.20;7.12;;;;;;;16.15;54.35;100765.66;1652863;87;21082;-65
2023/09/11 06:16:04;;;;;;;12.70;4.83;;;;;;;16.24;53.80;100767.60;1652972;87;21109;-64
2023/09/11 06:18:33;;;;;;;7.20;3.50;;;;;;;16.34;53.37;100762.44;1652985;87;21077;-66
2023/09/11 06:21:04;;;;;;;8.38;3.42;;;;;;;16.41;52.91;100772.36;1652853;87;21050;-66
2023/09/11 06:23:33;;;;;;;10.00;3.60;;;;;;;16.48;52.58;100772.30;1652816;87;21474;-65
2023/09/11 06:26:02;;;;;;;7.03;2.80;;;;;;;16.56;51.94;100771.16;1652761;87;21350;-65
2023/09/11 06:28:32;;;;;;;10.45;3.00;;;;;;;16.65;51.55;100770.67;1652998;87;21126;-66
2023/09/11 06:31:01;;;;;;;7.85;2.60;;;;;;;16.73;51.31;100770.91;1656861;86;21114;-66
2023/09/11 06:33:30;;;;;;;8.25;3.08;;;;;;;16.78;51.18;100771.92;1652970;87;21170;-65
2023/09/11 06:36:00;;;;;;;5.80;3.00;;;;;;;16.84;51.10;100774.84;1653090;87;21070;-65
2023/09/11 06:38:30;;;;;;;4.28;2.92;;;;;;;16.90;50.94;100776.69;1653069;87;21141;-65
2023/09/11 06:40:59;;;;;;;5.20;3.00;;;;;;;16.95;50.79;100768.57;1652859;87;21054;-64
2023/09/11 06:43:28;;;;;;;8.13;2.80;;;;;;;16.99;50.96;100774.80;1652951;87;21090;-66
2023/09/11 06:45:58;;;;;;;7.60;2.60;;;;;;;17.03;50.98;100769.65;1652940;87;21111;-65
2023/09/11 06:48:28;;;;;;;9.25;3.05;;;;;;;17.07;50.81;100764.80;1652917;87;21077;-65
2023/09/11 06:50:57;;;;;;;6.37;3.10;;;;;;;17.14;50.60;100768.87;1652963;87;21086;-65
2023/09/11 06:53:27;;;;;;;10.28;2.92;;;;;;;17.19;50.51;100770.41;1653029;87;21050;-65
2023/09/11 06:55:56;;;;;;;7.92;2.90;;;;;;;17.27;50.34;100763.70;1655494;86;21118;-65
2023/09/11 06:58:25;;;;;;;7.72;3.30;;;;;;;17.32;50.04;100769.39;1657006;86;21209;-65
2023/09/11 07:00:57;;;;;;;11.75;3.30;;;;;;;17.38;49.84;100762.91;1657178;86;21046;-66
2023/09/11 07:03:27;;;;;;;11.90;3.90;;;;;;;17.47;49.90;100766.20;1657245;86;21062;-66
2023/09/11 07:05:57;;;;;;;9.03;3.58;;;;;;;17.54;49.94;100764.19;1657364;86;21046;-64
2023/09/11 07:08:26;;;;;;;7.25;2.85;;;;;;;17.63;49.78;100763.66;1657081;86;21074;-66
2023/09/11 07:10:55;;;;;;;6.15;3.50;;;;;;;17.70;49.51;100757.50;1657114;86;21038;-65
2023/09/11 07:13:24;;;;;;;9.03;4.17;;;;;;;17.80;49.50;100758.32;1657331;86;21058;-64
2023/09/11 07:15:59;;;;;;;7.92;4.05;;;;;;;17.86;49.57;100764.84;1657227;85;21105;-65
2023/09/11 07:18:31;;;;;;;9.20;3.83;;;;;;;17.92;49.81;100764.74;1657532;86;21134;-65
2023/09/11 07:21:00;;;;;;;11.18;4.10;;;;;;;18.01;49.73;100760.54;1638931;86;21106;-66
2023/09/11 07:23:31;;;;;;;7.70;3.95;;;;;;;18.08;49.48;100755.43;1659676;86;21667;-65
2023/09/11 07:26:00;;;;;;;9.70;4.10;;;;;;;18.15;49.42;100763.09;1657019;86;21113;-64
2023/09/11 07:28:33;;;;;;;6.90;3.90;;;;;;;18.22;49.36;100759.70;1657339;86;21047;-66
2023/09/11 07:31:02;;;;;;;6.80;3.77;;;;;;;18.28;48.81;100755.43;1657113;86;21536;-65
2023/09/11 07:33:32;;;;;;;6.33;3.70;;;;;;;18.35;48.43;100745.61;1657142;86;21082;-68
2023/09/11 07:36:01;;;;;;;7.65;3.12;;;;;;;18.44;48.33;100752.48;1657369;86;21047;-66
2023/09/11 07:38:33;;;;;;;6.53;3.42;;;;;;;18.50;47.90;100746.51;1657396;86;21074;-66
2023/09/11 07:41:01;;;;;;;12.90;3.20;;;;;;;18.58;47.62;100748.38;1657388;86;21066;-66
2023/09/11 07:43:30;;;;;;;5.55;2.27;;;;;;;18.65;47.51;100743.58;1657429;86;21042;-66
2023/09/11 07:45:59;;;;;;;4.22;2.40;;;;;;;18.69;47.24;100739.23;1657234;86;21011;-66
2023/09/11 07:48:28;;;;;;;4.85;2.42;;;;;;;18.77;47.18;100742.72;1657367;86;21137;-66
2023/09/11 07:50:57;;;;;;;8.03;2.00;;;;;;;18.90;47.08;100741.10;1657367;86;21481;-66
2023/09/11 07:53:27;;;;;;;6.10;2.85;;;;;;;19.23;46.61;100740.41;1657152;86;21498;-66
2023/09/11 07:55:57;;;;;;;6.95;2.17;;;;;;;19.72;46.04;100743.66;1658161;86;21086;-64
2023/09/11 07:58:27;;;;;;;6.97;3.05;;;;;;;20.22;44.91;100738.16;1659375;86;21540;-69
2023/09/11 08:00:55;;;;;;;7.37;2.80;;;;;;;20.72;44.07;100737.30;1659823;86;21094;-65
2023/09/11 08:03:25;;;;;;;5.90;3.22;;;;;;;21.18;43.29;100739.63;1659574;86;21066;-66
2023/09/11 08:05:57;;;;;;;7.78;3.25;;;;;;;21.62;42.23;100730.42;1659454;86;21164;-67
2023/09/11 08:08:27;;;;;;;11.45;3.40;;;;;;;21.97;41.55;100727.14;1659549;86;21102;-65
2023/09/11 08:10:56;;;;;;;9.98;3.05;;;;;;;22.18;41.30;100724.04;1659481;86;21114;-66
2023/09/11 08:13:26;;;;;;;5.45;2.75;;;;;;;22.40;40.99;100729.80;1659299;86;21113;-66
2023/09/11 08:15:56;;;;;;;6.85;2.67;;;;;;;22.66;39.87;100731.36;1659314;86;21118;-66
2023/09/11 08:18:25;;;;;;;6.83;2.90;;;;;;;22.89;39.59;100725.42;1659392;86;21545;-67
2023/09/11 08:20:54;;;;;;;7.15;2.83;;;;;;;23.12;38.99;100723.28;1659475;86;21085;-68
2023/09/11 08:23:25;;;;;;;12.00;3.33;;;;;;;23.30;38.32;100722.80;1659295;86;21164;-73
2023/09/11 08:26:01;;;;;;;6.30;2.22;;;;;;;23.30;38.34;100721.40;1663065;84;21534;-75
2023/09/11 08:28:30;;;;;;;6.10;2.58;;;;;;;23.33;38.15;100725.89;1683128;84;21491;-76
2023/09/11 08:30:59;;;;;;;7.33;2.47;;;;;;;23.34;38.03;100714.98;1677959;85;21057;-74
2023/09/11 08:33:28;;;;;;;8.98;2.98;;;;;;;23.34;37.85;100715.55;1677889;84;21108;-74
2023/09/11 08:35:59;;;;;;;8.13;2.65;;;;;;;23.33;37.43;100722.25;1675316;85;21088;-76
2023/09/11 08:38:28;;;;;;;10.48;3.55;;;;;;;23.23;37.68;100724.45;1667301;85;21558;-75
2023/09/11 08:40:57;;;;;;;5.83;2.33;;;;;;;23.21;37.55;100721.64;1656960;85;21510;-76
2023/09/11 08:43:27;;;;;;;7.72;2.80;;;;;;;23.19;36.95;100716.33;1673121;85;21047;-74
2023/09/11 08:45:56;;;;;;;10.35;2.65;;;;;;;23.11;37.12;100718.25;1669296;85;21056;-77
2023/09/11 08:48:28;;;;;;;7.12;2.17;;;;;;;23.12;37.51;100712.10;1658184;86;21044;-77
2023/09/11 08:51:01;;;;;;;9.58;2.25;;;;;;;23.27;37.45;100712.16;1658288;86;21099;-75
2023/09/11 08:53:31;;;;;;;4.60;2.25;;;;;;;23.46;37.30;100707.78;1658279;86;21473;-78
2023/09/11 08:56:01;;;;;;;7.42;2.80;;;;;;;23.58;37.04;100711.19;1669673;86;21043;-78
2023/09/11 08:58:32;;;;;;;6.10;2.40;;;;;;;23.66;36.78;100710.66;1673974;86;21114;-78
2023/09/11 09:01:00;;;;;;;3.87;2.30;;;;;;;23.63;36.59;100714.00;1668765;85;21086;-73
2023/09/11 09:03:30;;;;;;;7.87;2.42;;;;;;;23.51;36.50;100700.80;1668986;85;21050;-76
2023/09/11 09:06:00;;;;;;;8.50;3.00;;;;;;;23.37;36.90;100694.02;1668795;85;21057;-77
2023/09/11 09:08:29;;;;;;;6.87;3.90;;;;;;;23.31;37.06;100688.97;1668871;86;21097;-76
2023/09/11 09:11:00;;;;;;;8.03;2.40;;;;;;;23.26;37.09;100683.91;1668651;86;21069;-77
2023/09/11 09:13:38;;;;;;;3.75;2.30;;;;;;;23.18;37.12;100683.05;1656098;86;21196;-77
2023/09/11 09:16:05;;;;;;;4.87;2.35;;;;;;;23.11;37.32;100687.50;1656066;86;21211;-78
2023/09/11 09:18:34;;;;;;;6.00;2.40;;;;;;;23.06;37.44;100683.29;1656222;87;21206;-77
2023/09/11 09:21:07;;;;;;;4.67;1.90;;;;;;;23.01;37.64;100673.48;1656441;87;21104;-74
2023/09/11 09:23:36;;;;;;;4.08;2.12;;;;;;;22.98;37.66;100675.44;1656530;87;21127;-75
2023/09/11 09:26:06;;;;;;;4.45;2.00;;;;;;;22.93;37.75;100674.86;1656186;87;21512;-76
2023/09/11 09:28:35;;;;;;;4.40;2.30;;;;;;;22.90;38.02;100668.41;1656199;87;21096;-74
2023/09/11 09:31:05;;;;;;;5.37;2.20;;;;;;;22.93;37.97;100663.67;1656330;86;21040;-76
2023/09/11 09:33:39;;;;;;;4.42;2.15;;;;;;;22.96;37.84;100667.32;1656370;87;21127;-77
2023/09/11 09:36:18;;;;;;;3.85;1.90;;;;;;;22.89;37.72;100660.30;1656292;86;21176;-74
2023/09/11 09:38:48;;;;;;;8.25;2.62;;;;;;;22.81;37.89;100667.26;1656465;87;21525;-80
2023/09/11 09:41:20;;;;;;;4.05;2.30;;;;;;;22.73;38.03;100669.11;1656436;87;21123;-80
2023/09/11 09:43:54;;;;;;;4.12;2.05;;;;;;;22.73;38.04;100663.52;1656466;87;21503;-78
2023/09/11 09:46:23;;;;;;;5.67;2.65;;;;;;;22.73;37.96;100664.92;1663318;86;21047;-78
2023/09/11 09:48:53;;;;;;;2.45;1.90;;;;;;;22.74;37.99;100656.82;1651990;85;21091;-76
2023/09/11 09:51:22;;;;;;;6.78;2.37;;;;;;;22.81;37.77;100656.08;1668721;86;21083;-79
2023/09/11 09:53:54;;;;;;;3.30;1.98;;;;;;;22.90;37.36;100652.20;1668924;86;21071;-81
2023/09/11 09:56:26;;;;;;;3.12;1.60;;;;;;;22.96;37.15;100644.13;1668586;86;21593;-79
2023/09/11 09:58:56;;;;;;;2.95;2.30;;;;;;;22.93;37.13;100649.70;1609076;86;21095;-79
2023/09/11 10:01:25;;;;;;;3.33;2.00;;;;;;;22.91;37.06;100647.73;1668732;86;21459;-79
2023/09/11 10:03:54;;;;;;;4.65;2.17;;;;;;;22.89;36.99;100641.58;1668868;85;21071;-82
2023/09/11 10:06:31;;;;;;;4.97;1.82;;;;;;;22.86;37.11;100647.72;1668793;86;21011;-81
2023/09/11 10:09:13;;;;;;;2.45;1.67;;;;;;;22.78;37.16;100642.06;1668984;85;21475;-81
2023/09/11 10:11:44;;;;;;;6.90;3.05;;;;;;;22.66;37.38;100640.02;1668778;86;21027;-78
2023/09/11 10:14:14;;;;;;;6.53;2.60;;;;;;;22.55;37.72;100637.45;1668685;85;21492;-79
2023/09/11 10:16:43;;;;;;;5.00;2.52;;;;;;;22.49;38.05;100631.55;1669015;86;21047;-78
2023/09/11 10:19:12;;;;;;;6.05;2.30;;;;;;;22.45;37.98;100634.89;1672958;86;21068;-80
2023/09/11 10:21:43;;;;;;;4.80;2.33;;;;;;;22.41;38.08;100632.91;1673320;85;21089;-76
2023/09/11 10:24:12;;;;;;;10.50;3.80;;;;;;;22.40;38.39;100632.06;1673528;85;21033;-78
2023/09/11 10:26:45;;;;;;;4.67;2.42;;;;;;;22.46;38.51;100633.78;1673602;85;21116;-79
2023/09/11 10:29:52;;;;;;;8.83;2.37;;;;;;;22.53;38.39;100629.90;1673479;85;21528;-78
2023/09/11 10:32:37;;;;;;;3.75;2.00;;;;;;;22.56;38.48;100619.58;1642723;86;21425;-76
2023/09/11 10:35:07;;;;;;;6.20;2.40;;;;;;;22.61;38.24;100616.81;1673266;86;21097;-79
2023/09/11 10:37:38;;;;;;;3.37;1.80;;;;;;;22.62;38.12;100616.54;1678513;85;21100;-79
2023/09/11 10:40:08;;;;;;;4.37;2.15;;;;;;;22.62;37.88;100617.94;1673334;85;21106;-77
2023/09/11 10:42:37;;;;;;;6.75;2.60;;;;;;;22.60;37.82;100615.12;1678461;84;21580;-71
2023/09/11 10:45:27;;;;;;;5.10;1.98;;;;;;;22.60;37.76;100612.34;1672439;85;21104;-71
2023/09/11 10:47:56;;;;;;;2.80;1.77;;;;;;;22.62;37.85;100609.55;1651292;87;21076;-72
2023/09/11 10:50:37;;;;;;;3.77;2.05;;;;;;;22.67;37.81;100612.38;1651148;87;21492;-70
2023/09/11 10:53:07;;;;;;;5.00;2.00;;;;;;;22.69;37.29;100614.34;1651347;87;21119;-72
2023/09/11 10:55:37;;;;;;;4.28;1.80;;;;;;;22.68;37.23;100597.84;1656169;86;21088;-72
2023/09/11 10:58:06;;;;;;;4.30;2.10;;;;;;;22.67;37.15;100601.75;1562006;90;21087;-72
2023/09/11 11:00:40;;;;;;;4.40;2.15;;;;;;;22.69;37.31;100598.12;1584837;88;21140;-71
2023/09/11 11:03:09;;;;;;;5.22;2.33;;;;;;;22.71;37.39;100600.09;1594510;90;21134;-72
2023/09/11 11:05:39;;;;;;;3.42;2.27;;;;;;;22.75;37.69;100588.66;1588348;89;21079;-72
2023/09/11 11:08:08;;;;;;;3.85;1.90;;;;;;;22.83;37.47;100592.94;1621381;88;21072;-72
2023/09/11 11:10:44;;;;;;;3.67;2.00;;;;;;;22.87;37.33;100595.47;1621403;88;21096;-72
2023/09/11 11:13:14;;;;;;;6.90;2.30;;;;;;;22.87;37.31;100587.92;1621593;88;21128;-72
2023/09/11 11:15:43;;;;;;;5.80;2.37;;;;;;;22.90;37.24;100577.59;1621519;88;21068;-71
2023/09/11 11:18:24;;;;;;;3.30;2.00;;;;;;;22.92;37.17;100579.55;1621269;88;21056;-73
2023/09/11 11:21:05;;;;;;;2.80;1.90;;;;;;;22.98;37.03;100570.06;1621384;87;21539;-72
2023/09/11 11:23:53;;;;;;;5.55;2.47;;;;;;;23.05;36.94;100574.84;1621306;88;21136;-71
2023/09/11 11:26:25;;;;;;;9.35;4.22;;;;;;;23.13;36.77;100574.02;1621350;88;21140;-71
2023/09/11 11:28:54;;;;;;;6.72;2.92;;;;;;;23.15;36.80;100569.82;1621163;88;21461;-71
2023/09/11 11:31:23;;;;;;;4.95;2.50;;;;;;;23.19;36.82;100569.55;1626211;87;21120;-72
2023/09/11 11:33:53;;;;;;;6.92;2.52;;;;;;;23.23;36.94;100562.84;1621343;88;21096;-72
2023/09/11 11:36:23;;;;;;;3.98;2.25;;;;;;;23.27;36.81;100563.41;1583843;88;21128;-73
2023/09/11 11:38:56;;;;;;;4.60;2.22;;;;;;;23.30;36.61;100555.02;1605002;88;21073;-71